Kaibab Indian Reservation, Arizona
Current Conditions -  °F | °C
As of 6:55 AM on Tuesday 21 Oct 2014 (Local Time) from KAZC Reporting Station
Overcast Overcast  
Wind Chill: 48°   Ceiling: 7000
Heat Index: 48°   Visibility: 10mi
Dew Point: 41°   Wind: 3mph
Humidity: 78%   Direction: 140°SE
Pressure: 30.07"   Gusts: NA
Location:  36.9484°N, 112.529°W
Report Text: KAZC 211355Z AUTO 14003KT 10SM OVC070 09/05 A3007 RMK AO2 T00870050
Loading
Personal Weather Stations






























Interactive Weather Map
Tropical Storm Tracking
New forecast layout! Learn more

10-Day Weather Forecast

Advertisements
Track Severe Weather on mobile